Newport, Oregon
Current Conditions -  °F | °C
As of 8:15 PM on Tuesday 25 Nov 2014 (Local Time) from KONP Reporting Station
Overcast Overcast  
Wind Chill: 55°   Ceiling: 500
Heat Index: 55°   Visibility: 7mi
Dew Point: 55°   Wind: 9mph
Humidity: 100%   Direction: 190°S
Pressure: 30.34"   Gusts: NA
Location:  44.63°N, 124.05°W
Report Text: KONP 260415Z AUTO 19008KT 7SM BKN005 OVC050 13/13 A3034 RMK AO2
Loading
Personal Weather Stations






























Interactive Weather Map New forecast layout! Learn more

10-Day Weather Forecast

Advertisements
Track Severe Weather on mobile